Flight Track Log - Related Links

Times and Time Zones

All times are in EDT time to prevent confusion due to time zone crossing. See the UAL906 flight status page for this flight to view local times or setup timezone preferences in your user account.

Time Position Orientation Groundspeed Altitude Reporting Facility
EDT Latitude Longitude Course Direction KTS MPH feet Rate Location/Type
Wed 07:12:02 PM 41.9850 -87.9260 320° Northwest 165 190 1,500  Level FlightAware ADS-B
Wed 07:12:32 PM 42.0040 -87.9430 326° Northwest 182 209 2,500 1,745 Climbing FlightAware ADS-B
Wed 07:12:57 PM 42.0250 -87.9610 328° Northwest 213 245 3,100 1,745 Climbing FlightAware ADS-B
Wed 07:13:27 PM 42.0510 -87.9830 328° Northwest 228 262 4,100 1,500 Climbing FlightAware ADS-B
Wed 07:13:57 PM 42.0760 -88.0060 326° Northwest 250 288 4,600 873 Climbing FlightAware ADS-B
Wed 07:14:22 PM 42.1060 -88.0250 335° Northwest 260 299 4,900 686 Climbing FlightAware ADS-B
Wed 07:15:07 PM 42.1610 -88.0220 North 255 293 5,400 1,360 Climbing FlightAware ADS-B
Wed 07:15:37 PM 42.1950 -88.0190 North 262 302 6,600 2,836 Climbing FlightAware ADS-B
Wed 07:16:02 PM 42.2260 -88.0160 North 257 296 8,000 2,836 Climbing FlightAware ADS-B
Wed 07:16:32 PM 42.2620 -88.0110 North 266 306 9,200 2,057 Climbing FlightAware ADS-B
Wed 07:17:12 PM 42.3130 -88.0030 North 296 341 10,400 1,482 Climbing FlightAware ADS-B
Wed 07:17:57 PM 42.3790 -87.9950 North 338 389 11,300 1,694 Climbing FlightAware ADS-B
Wed 07:18:37 PM 42.4440 -87.9880 North 353 406 12,800 2,325 Climbing FlightAware ADS-B
Wed 07:19:17 PM 42.5100 -87.9800 North 365 420 14,400 2,259 Climbing FlightAware ADS-B
Wed 07:20:02 PM 42.5880 -87.9690 North 378 435 16,000 2,118 Climbing FlightAware ADS-B
Wed 07:20:42 PM 42.6580 -87.9500 11° North 400 460 17,400 1,835 Climbing FlightAware ADS-B
Wed 07:21:27 PM 42.7260 -87.8810 37° Northeast 425 489 18,600 1,650 Climbing FlightAware ADS-B
Wed 07:22:02 PM 42.7800 -87.8230 38° Northeast 434 499 19,600 1,765 Climbing FlightAware ADS-B
Wed 07:22:52 PM 42.8580 -87.7320 41° Northeast 444 511 21,100 1,800 Climbing FlightAware ADS-B
Wed 07:23:32 PM 42.9210 -87.6550 42° Northeast 449 517 22,300 1,650 Climbing FlightAware ADS-B
Wed 07:24:12 PM 42.9820 -87.5820 41° Northeast 455 524 23,300 1,482 Climbing FlightAware ADS-B
Wed 07:24:57 PM 43.0570 -87.4940 41° Northeast 465 535 24,400 1,050 Climbing FlightAware ADS-B
Wed 07:25:32 PM 43.1080 -87.4330 41° Northeast 466 536 24,700 212 Climbing FlightAware ADS-B
Wed 07:26:22 PM 43.1770 -87.3500 41° Northeast 466 536 24,700 1,553 Level FlightAware ADS-B
Wed 07:26:57 PM 43.2540 -87.2600 40° Northeast 486 559 26,900 2,625 Climbing FlightAware ADS-B
Wed 07:27:42 PM 43.3290 -87.1690 41° Northeast 484 557 28,200 1,533 Climbing FlightAware ADS-B
Wed 07:28:27 PM 43.4060 -87.0770 41° Northeast 486 559 29,200 1,271 Climbing FlightAware ADS-B
Wed 07:29:07 PM 43.4720 -86.9970 41° Northeast 487 560 30,000 1,059 Climbing FlightAware ADS-B
Wed 07:29:52 PM 43.5490 -86.9040 41° Northeast 495 570 30,700 750 Climbing FlightAware ADS-B
Wed 07:30:27 PM 43.6130 -86.8270 41° Northeast 499 574 31,000 225 Climbing FlightAware ADS-B
Wed 07:31:12 PM 43.6880 -86.7360 41° Northeast 498 573 31,000 141 Level FlightAware ADS-B
Wed 07:31:52 PM 43.7570 -86.6530 41° Northeast 498 573 31,200 847 Climbing FlightAware ADS-B
Wed 07:32:37 PM 43.8320 -86.5610 41° Northeast 493 567 32,200 1,050 Climbing FlightAware ADS-B
Wed 07:33:12 PM 43.8910 -86.4890 41° Northeast 497 572 32,600 565 Climbing FlightAware ADS-B
Wed 07:34:02 PM 43.9820 -86.3770 42° Northeast 505 581 33,000 267 Climbing FlightAware ADS-B
Wed 07:34:42 PM 44.0520 -86.2910 41° Northeast 514 592 33,000  Level FlightAware ADS-B
Wed 07:35:22 PM 44.1190 -86.2090 41° Northeast 517 595 33,000  Level FlightAware ADS-B
Wed 07:36:07 PM 44.2060 -86.1020 41° Northeast 518 596 33,000  Level FlightAware ADS-B
Wed 07:36:52 PM 44.2850 -86.0030 42° Northeast 511 588 33,000  Level FlightAware ADS-B
Wed 07:37:32 PM 44.3550 -85.9150 42° Northeast 510 587 33,000  Level FlightAware ADS-B
Wed 07:38:02 PM 44.4070 -85.8490 42° Northeast 510 587 33,000  Level FlightAware ADS-B
Wed 07:38:52 PM 44.4930 -85.7410 42° Northeast 510 587 33,000  Level FlightAware ADS-B
Wed 07:39:37 PM 44.5740 -85.6390 42° Northeast 511 588 33,000  Level FlightAware ADS-B
Wed 07:40:22 PM 44.6520 -85.5410 42° Northeast 513 590 33,000  Level FlightAware ADS-B
Wed 07:41:02 PM 44.7230 -85.4500 42° Northeast 514 592 33,000  Level FlightAware ADS-B
Wed 07:41:42 PM 44.7930 -85.3630 41° Northeast 516 594 33,000  Level FlightAware ADS-B
Wed 07:42:27 PM 44.8780 -85.2570 41° Northeast 518 596 33,000  Level FlightAware ADS-B
Wed 07:43:07 PM 44.9480 -85.1690 42° Northeast 519 597 33,000  Level FlightAware ADS-B
Wed 07:43:52 PM 45.0290 -85.0670 42° Northeast 521 600 33,000  Level FlightAware ADS-B
Wed 07:44:32 PM 45.1010 -84.9760 42° Northeast 522 601 33,000  Level FlightAware ADS-B
Wed 07:45:12 PM 45.1730 -84.8850 42° Northeast 523 602 33,000  Level FlightAware ADS-B
Wed 07:45:57 PM 45.2520 -84.7830 42° Northeast 523 602 33,000  Level FlightAware ADS-B
Wed 07:46:32 PM 45.3170 -84.7010 42° Northeast 524 603 33,000  Level FlightAware ADS-B
Wed 07:47:17 PM 45.3960 -84.5980 42° Northeast 525 604 33,000  Level FlightAware ADS-B
Wed 07:48:02 PM 45.4790 -84.4920 42° Northeast 525 604 33,000  Level FlightAware ADS-B
Wed 07:48:42 PM 45.5500 -84.3990 43° Northeast 524 603 33,000  Level FlightAware ADS-B
Wed 07:49:27 PM 45.6290 -84.2960 42° Northeast 524 603 33,000  Level FlightAware ADS-B
Wed 07:50:07 PM 45.7020 -84.2010 42° Northeast 523 602 33,000  Level FlightAware ADS-B
Wed 07:50:47 PM 45.7720 -84.1090 42° Northeast 522 601 33,000  Level FlightAware ADS-B
Wed 07:51:32 PM 45.8540 -84.0010 43° Northeast 520 598 33,000  Level FlightAware ADS-B
Wed 07:52:12 PM 45.9210 -83.9110 43° Northeast 518 596 33,000  Level FlightAware ADS-B
Wed 07:52:57 PM 46.0010 -83.8060 42° Northeast 517 595 33,000  Level FlightAware ADS-B
Wed 07:53:32 PM 46.0630 -83.7220 43° Northeast 516 594 33,000  Level FlightAware ADS-B
Wed 07:54:22 PM 46.1510 -83.6050 43° Northeast 516 594 33,000  Level FlightAware ADS-B
Wed 07:55:02 PM 46.2210 -83.5110 43° Northeast 516 594 33,000  Level FlightAware ADS-B
Wed 07:55:42 PM 46.2900 -83.4170 43° Northeast 516 594 33,000  Level FlightAware ADS-B
Wed 07:56:27 PM 46.3670 -83.3120 43° Northeast 516 594 33,000  Level FlightAware ADS-B
Wed 07:57:07 PM 46.4370 -83.2180 43° Northeast 516 594 33,000  Level FlightAware ADS-B
Wed 07:57:52 PM 46.5160 -83.1100 43° Northeast 516 594 33,000  Level FlightAware ADS-B
Wed 07:58:27 PM 46.5730 -83.0320 43° Northeast 516 594 33,000  Level FlightAware ADS-B
Wed 07:59:12 PM 46.6530 -82.9220 43° Northeast 516 594 33,000  Level FlightAware ADS-B
Wed 07:59:57 PM 46.7290 -82.8150 44° Northeast 515 593 33,000  Level FlightAware ADS-B
Wed 08:00:37 PM 46.7950 -82.7230 44° Northeast 515 593 33,000  Level FlightAware ADS-B
Wed 08:01:17 PM 46.8690 -82.6210 43° Northeast 514 592 33,000  Level FlightAware ADS-B
Wed 08:01:57 PM 46.9320 -82.5340 43° Northeast 514 592 33,000  Level FlightAware ADS-B
Wed 08:02:37 PM 46.9910 -82.4530 43° Northeast 514 592 33,000  Level FlightAware ADS-B
Wed 08:03:27 PM 47.0650 -82.3520 43° Northeast 514 592 33,000  Level FlightAware ADS-B
Wed 08:04:07 PM 47.1240 -82.2710 43° Northeast 514 592 33,000  Level FlightAware ADS-B
Wed 08:04:47 PM 47.1830 -82.1900 43° Northeast 514 592 33,000  Level FlightAware ADS-B
Wed 08:05:27 PM 47.2420 -82.1090 43° Northeast 514 592 33,000  Level FlightAware ADS-B
Wed 08:06:07 PM 47.3010 -82.0280 43° Northeast 514 592 33,000  Level FlightAware ADS-B
Wed 08:06:57 PM 47.3750 -81.9260 43° Northeast 514 592 33,000  Level FlightAware ADS-B
Wed 08:07:27 PM 47.4200 -81.8650 43° Northeast 514 592 33,000  Level FlightAware ADS-B
Wed 08:08:17 PM 47.4940 -81.7630 43° Northeast 514 592 33,000  Level FlightAware ADS-B
Wed 08:08:57 PM 47.5530 -81.6810 43° Northeast 514 592 33,000  Level FlightAware ADS-B
Wed 08:09:37 PM 47.6120 -81.5990 43° Northeast 514 592 33,000  Level FlightAware ADS-B
Wed 08:10:27 PM 47.6860 -81.4970 43° Northeast 514 592 33,000  Level FlightAware ADS-B
Wed 08:11:07 PM 47.7450 -81.4150 43° Northeast 514 592 33,000  Level FlightAware ADS-B
Wed 08:11:28 PM 47.8833 -81.1500 43° Northeast 520 598 33,000  Level Montreal Center
Wed 08:12:28 PM 48.0000 -80.9833 44° Northeast 520 598 33,000  Level Montreal Center
Wed 08:13:28 PM 48.1000 -80.8167 48° Northeast 520 598 33,000  Level Montreal Center
Wed 08:14:28 PM 48.2167 -80.6833 37° Northeast 520 598 33,000  Level Montreal Center
Wed 08:15:28 PM 48.3333 -80.5500 37° Northeast 530 610 33,000  Level Montreal Center
Wed 08:16:28 PM 48.4500 -80.4333 34° Northeast 540 621 33,000  Level Montreal Center
Wed 08:17:28 PM 48.5667 -80.2833 40° Northeast 540 621 33,000  Level Montreal Center
Wed 08:18:28 PM 48.7000 -80.1500 33° Northeast 540 621 33,000  Level Montreal Center
Wed 08:19:28 PM 48.8167 -80.0333 33° Northeast 540 621 33,000  Level Montreal Center
Wed 08:20:28 PM 48.9500 -79.8833 36° Northeast 540 621 33,000  Level Montreal Center
Wed 08:21:28 PM 49.0500 -79.7333 44° Northeast 550 633 33,000  Level Montreal Center
Wed 08:22:28 PM 49.2000 -79.6000 30° Northeast 550 633 33,000  Level Montreal Center
Wed 08:23:28 PM 49.3167 -79.4500 40° Northeast 550 633 33,000  Level Montreal Center
Wed 08:24:28 PM 49.4167 -79.3000 44° Northeast 550 633 33,000  Level Montreal Center
Wed 08:26:28 PM 49.6833 -79.0000 36° Northeast 560 644 33,000  Level Montreal Center
Wed 08:27:28 PM 49.8000 -78.8667 36° Northeast 560 644 33,000  Level Montreal Center
Wed 08:28:28 PM 49.9500 -78.7167 33° Northeast 570 656 33,000  Level Montreal Center
Wed 08:29:28 PM 50.0500 -78.5833 41° Northeast 560 644 33,000  Level Montreal Center
Wed 08:30:28 PM 50.1667 -78.4333 39° Northeast 560 644 33,000  Level Montreal Center
Wed 08:31:28 PM 50.3000 -78.2833 36° Northeast 570 656 33,000  Level Montreal Center
Wed 08:32:28 PM 50.4333 -78.1333 36° Northeast 550 633 33,000  Level Montreal Center
Wed 08:33:28 PM 50.5500 -77.9500 45° Northeast 560 644 33,000  Level Montreal Center
Wed 08:34:28 PM 50.6667 -77.8167 36° Northeast 570 656 33,000  Level Montreal Center
Wed 08:35:28 PM 50.8000 -77.6500 38° Northeast 580 667 33,000  Level Montreal Center
Wed 08:36:28 PM 50.9167 -77.4833 42° Northeast 580 667 33,000  Level Montreal Center
Wed 08:37:28 PM 51.0667 -77.3333 32° Northeast 590 679 33,000  Level Montreal Center
Wed 08:38:28 PM 51.2000 -77.1667 38° Northeast 590 679 33,000  Level Montreal Center
Wed 08:39:28 PM 51.3167 -76.9833 44° Northeast 590 679 33,000  Level Montreal Center
Wed 08:40:28 PM 51.4500 -76.8333 35° Northeast 590 679 33,000  Level Montreal Center
Wed 08:41:28 PM 51.5667 -76.6667 42° Northeast 580 667 33,000  Level Montreal Center
Wed 08:42:28 PM 51.7000 -76.4833 40° Northeast 580 667 33,000  Level Montreal Center
Wed 08:43:28 PM 51.8333 -76.3167 38° Northeast 580 667 33,000  Level Montreal Center
Wed 08:44:28 PM 51.9667 -76.1500 38° Northeast 580 667 33,000  Level Montreal Center
Wed 08:45:28 PM 52.0833 -76.0000 38° Northeast 580 667 33,000  Level Montreal Center
Wed 08:46:28 PM 52.2000 -75.8333 41° Northeast 590 679 33,000  Level Montreal Center
Wed 08:47:28 PM 52.3333 -75.6667 37° Northeast 580 667 33,000  Level Montreal Center
Wed 08:48:28 PM 52.4500 -75.5000 41° Northeast 590 679 33,000  Level Montreal Center
Wed 08:49:28 PM 52.5667 -75.3000 46° Northeast 580 667 33,000  Level Montreal Center
Wed 08:50:28 PM 52.7000 -75.1333 37° Northeast 580 667 33,000  Level Montreal Center
Wed 08:51:28 PM 52.8167 -74.9333 46° Northeast 580 667 33,000  Level Montreal Center
Wed 08:52:28 PM 52.9333 -74.7667 41° Northeast 560 644 33,000  Level Montreal Center
Wed 08:53:28 PM 53.0500 -74.5667 46° Northeast 560 644 33,000  Level Montreal Center
Wed 08:54:28 PM 53.1500 -74.4000 45° Northeast 560 644 33,000  Level Montreal Center
Wed 08:55:28 PM 53.2500 -74.1833 52° Northeast 560 644 33,000  Level Montreal Center
Wed 08:56:28 PM 53.3500 -73.9833 50° Northeast 560 644 33,000  Level Montreal Center
Wed 08:57:28 PM 53.4500 -73.7833 50° Northeast 560 644 33,000  Level Montreal Center
Wed 08:58:28 PM 53.5667 -73.6167 40° Northeast 570 656 33,000  Level Montreal Center
Wed 08:59:28 PM 53.6667 -73.4000 52° Northeast 570 656 33,000  Level Montreal Center
Wed 09:00:28 PM 53.7833 -73.2000 45° Northeast 570 656 33,000  Level Montreal Center
Wed 09:01:28 PM 53.9000 -72.9833 48° Northeast 580 667 33,000  Level Montreal Center
Wed 09:02:28 PM 53.9833 -72.7833 55° Northeast 580 667 33,000  Level Montreal Center
Wed 09:03:28 PM 54.1000 -72.5667 47° Northeast 580 667 33,000  Level Montreal Center
Wed 09:03:52 PM 54.1333 -72.5333 30° Northeast 590 679 33,000  Level Gander Center
Wed 09:04:28 PM 54.2167 -72.3667 49° Northeast 590 679 33,000  Level Montreal Center
Wed 09:05:28 PM 54.3000 -72.1500 57° Northeast 590 679 33,000  Level Montreal Center
Wed 09:06:28 PM 54.4333 -71.9167 45° Northeast 590 679 33,000  Level Montreal Center
Wed 09:07:28 PM 54.5333 -71.7000 51° Northeast 580 667 33,000  Level Montreal Center
Wed 09:08:28 PM 54.6333 -71.4833 51° Northeast 580 667 33,000  Level Montreal Center
Wed 09:09:28 PM 54.7500 -71.2667 47° Northeast 580 667 33,000  Level Montreal Center
Wed 09:10:28 PM 54.8333 -71.0500 56° Northeast 580 667 33,000  Level Montreal Center
Wed 09:11:28 PM 54.9500 -70.8667 42° Northeast 580 667 33,000  Level Montreal Center
Wed 09:12:28 PM 55.0500 -70.6333 53° Northeast 570 656 33,000  Level Montreal Center
Wed 09:13:28 PM 55.1500 -70.4167 51° Northeast 580 667 33,000  Level Montreal Center
Wed 09:14:28 PM 55.2500 -70.2000 51° Northeast 580 667 33,000  Level Montreal Center
Wed 09:15:28 PM 55.3667 -69.9667 49° Northeast 590 679 33,000  Level Montreal Center
Wed 09:16:28 PM 55.4667 -69.7833 46° Northeast 590 679 33,000 -100 Level Montreal Center
Wed 09:17:28 PM 55.5833 -69.5167 52° Northeast 590 679 32,800 -600 Descending Montreal Center
Wed 09:18:28 PM 55.6833 -69.3000 51° Northeast 590 679 31,800 -900 Descending Montreal Center
Wed 09:19:28 PM 55.7833 -69.0667 53° Northeast 590 679 31,000 -400 Descending Montreal Center
Wed 09:20:28 PM 55.8833 -68.8500 50° Northeast 590 679 31,000  Level Montreal Center
Wed 09:21:28 PM 55.9833 -68.6167 52° Northeast 590 679 31,000  Level Montreal Center
Wed 09:22:28 PM 56.0833 -68.3833 52° Northeast 580 667 31,000  Level Montreal Center
Wed 09:23:28 PM 56.1833 -68.1500 52° Northeast 590 679 31,000  Level Montreal Center
Wed 09:24:28 PM 56.2833 -67.9167 52° Northeast 590 679 31,000  Level Montreal Center
Wed 09:25:28 PM 56.3833 -67.6833 52° Northeast 590 679 31,000  Level Montreal Center
Wed 09:26:28 PM 56.4833 -67.4500 52° Northeast 590 679 31,000  Level Montreal Center
Wed 09:27:28 PM 56.5833 -67.2000 54° Northeast 590 679 31,000  Level Montreal Center
Wed 09:29:00 PM 56.6809 -66.9462 55° Northeast  Level FlightAware Approximate
Wed 09:29:28 PM 56.7667 -66.7000 55° Northeast 580 667 31,000  Level Montreal Center
Wed 09:30:28 PM 56.8500 -66.4667 57° Northeast 560 644 31,000  Level Montreal Center
Wed 09:30:52 PM 56.9000 -66.4167 29° Northeast 560 644 31,000  Level Gander Center
Wed 09:31:28 PM 56.9500 -66.2167 65° Northeast 570 656 31,000  Level Montreal Center
Wed 09:32:28 PM 57.0333 -65.9833 57° Northeast 580 667 31,000  Level Montreal Center
Wed 09:33:28 PM 57.1333 -65.7333 54° Northeast 580 667 31,000  Level Montreal Center
Wed 09:33:52 PM 57.1667 -65.6833 39° Northeast 580 667 31,000  Level Gander Center
Wed 09:34:28 PM 57.2167 -65.5000 63° Northeast 580 667 31,000  Level Montreal Center
Wed 09:35:28 PM 57.3000 -65.2500 58° Northeast 570 656 31,000  Level Montreal Center
Wed 09:35:48 PM 57.3333 -65.2000 39° Northeast 570 656 31,000  Level Gander Center
Wed 09:36:48 PM 57.4167 -64.9667 56° Northeast 570 656 31,000  Level Gander Center
Wed 09:37:28 PM 57.4833 -64.7500 60° Northeast 570 656 31,000 540 Level Montreal Center
Wed 09:38:28 PM 57.5500 -64.4833 65° Northeast 570 656 31,900 800 Climbing Montreal Center
Wed 09:39:28 PM 57.6333 -64.2333 58° Northeast 570 656 32,600 714 Climbing Montreal Center
Wed 09:39:52 PM 57.6667 -64.1833 39° Northeast 580 667 32,900 286 Climbing Gander Center
Wed 09:40:52 PM 57.7500 -63.9000 61° Northeast 590 679 33,000 63 Climbing Gander Center
Wed 09:41:28 PM 57.7833 -63.7000 73° East 590 679 33,000  Level Montreal Center
Wed 09:42:28 PM 57.8667 -63.4167 61° Northeast 590 679 33,000  Level Montreal Center
Wed 09:42:52 PM 57.9000 -63.3833 28° Northeast 590 679 33,000  Level Gander Center
Wed 09:43:28 PM 57.9500 -63.1667 66° East 580 667 33,000  Level Montreal Center
Wed 09:44:28 PM 58.0167 -62.8833 66° East 570 656 33,000  Level Montreal Center
Wed 09:45:28 PM 58.1000 -62.6333 58° Northeast 570 656 33,000  Level Montreal Center
Wed 09:45:48 PM 58.1167 -62.6000 47° Northeast 570 656 33,000  Level Gander Center
Wed 09:46:48 PM 58.1833 -62.3500 63° Northeast 560 644 33,000  Level Gander Center
Wed 09:47:28 PM 58.2500 -62.1167 61° Northeast 560 644 33,000  Level Montreal Center
Wed 09:48:28 PM 58.3167 -61.8333 66° East 570 656 33,000  Level Montreal Center
Wed 09:48:52 PM 58.3500 -61.7833 38° Northeast 580 667 33,000  Level Gander Center
Wed 09:49:52 PM 58.4167 -61.5333 63° Northeast 570 656 33,000  Level Gander Center
Wed 09:50:28 PM 58.4500 -61.3000 75° East 560 644 33,000  Level Montreal Center
Wed 09:51:28 PM 58.5167 -61.0333 64° Northeast 560 644 33,000  Level Montreal Center
Wed 09:51:52 PM 58.5500 -61.0000 28° Northeast 560 644 33,000  Level Gander Center
Wed 09:52:52 PM 58.6167 -60.7333 64° Northeast 550 633 33,000  Level Gander Center
Wed 09:53:28 PM 58.6500 -60.5167 73° East 550 633 33,000  Level Montreal Center
Wed 09:54:28 PM 58.7000 -60.2333 71° East 550 633 33,000  Level Montreal Center
Wed 09:55:28 PM 58.7500 -59.9500 71° East 550 633 33,000  Level Montreal Center
Wed 09:56:28 PM 58.8000 -59.6833 70° East 550 633 33,000  Level Montreal Center
Wed 09:56:52 PM 58.8333 -59.6167 46° Northeast 550 633 33,000  Level Gander Center
Wed 09:57:52 PM 58.8500 -59.3167 84° East 550 633 33,000  Level Gander Center
Wed 09:58:52 PM 58.9000 -59.0333 71° East 550 633 33,000  Level Gander Center
Wed 09:59:52 PM 58.9500 -58.7667 70° East 550 633 33,000  Level Gander Center
Wed 10:00:52 PM 58.9833 -58.4667 78° East 550 633 33,000  Level Gander Center
Wed 10:01:52 PM 59.0333 -58.1667 72° East 550 633 33,000  Level Gander Center
Wed 10:02:48 PM 59.0667 -57.9500 73° East 560 644 33,000  Level Gander Center
Wed 10:03:48 PM 59.1000 -57.6500 78° East 560 644 33,000  Level Gander Center
Wed 10:04:48 PM 59.1500 -57.3833 70° East 560 644 33,000  Level Gander Center
Wed 10:05:52 PM 59.2000 -57.0167 75° East 560 644 33,000  Level Gander Center
Wed 10:06:52 PM 59.2500 -56.7167 72° East 560 644 33,000  Level Gander Center
Wed 10:07:52 PM 59.2833 -56.4500 76° East 550 633 33,000  Level Gander Center
Wed 10:08:52 PM 59.3167 -56.1500 78° East 540 621 33,000  Level Gander Center
Wed 10:09:52 PM 59.3667 -55.8833 70° East 530 610 33,000  Level Gander Center
Wed 10:10:52 PM 59.3833 -55.5833 84° East 530 610 33,000  Level Gander Center
Wed 10:11:52 PM 59.4167 -55.3167 76° East 540 621 33,000  Level Gander Center
Wed 10:12:52 PM 59.4500 -55.0167 78° East 540 621 33,000  Level Gander Center
Wed 10:13:52 PM 59.5000 -54.7500 70° East 540 621 33,000  Level Gander Center
Wed 10:15:00 PM 59.5384 -54.4240 76° East  Level FlightAware Approximate
Wed 10:22:00 PM 59.7576 -52.5129 76° East  Level FlightAware Approximate
Wed 10:23:00 PM 59.7867 -52.2378 78° East  Level FlightAware Approximate
Wed 10:24:00 PM 59.8151 -51.9623 78° East  Level FlightAware Approximate
Wed 10:25:00 PM 59.8430 -51.6864 79° East  Level FlightAware Approximate
Wed 10:26:00 PM 59.8703 -51.4100 79° East  Level FlightAware Approximate
Wed 10:27:00 PM 59.8971 -51.1331 79° East  Level FlightAware Approximate
Wed 10:28:00 PM 59.9232 -50.8558 79° East  Level FlightAware Approximate
Wed 10:29:00 PM 59.9488 -50.5780 79° East  Level FlightAware Approximate
Wed 10:30:00 PM 59.9738 -50.2999 80° East  Level FlightAware Approximate
Wed 10:31:00 PM 59.9982 -50.0213 80° East  Level FlightAware Approximate
Wed 10:32:00 PM 60.0095 -49.7400 86° East  Level FlightAware Approximate
Wed 10:33:00 PM 60.0193 -49.4583 86° East  Level FlightAware Approximate
Wed 10:34:00 PM 60.0284 -49.1764 86° East  Level FlightAware Approximate
Wed 10:35:00 PM 60.0370 -48.8944 86° East  Level FlightAware Approximate
Wed 10:36:00 PM 60.0449 -48.6123 87° East  Level FlightAware Approximate
Wed 10:37:00 PM 60.0523 -48.3300 87° East  Level FlightAware Approximate
Wed 10:38:00 PM 60.0590 -48.0475 87° East  Level FlightAware Approximate
Wed 10:39:00 PM 60.0652 -47.7650 87° East  Level FlightAware Approximate
Wed 10:40:00 PM 60.0707 -47.4824 88° East  Level FlightAware Approximate
Wed 10:41:00 PM 60.0757 -47.1997 88° East  Level FlightAware Approximate
Wed 10:42:00 PM 60.0800 -46.9169 88° East  Level FlightAware Approximate
Wed 10:43:00 PM 60.0837 -46.6340 89° East  Level FlightAware Approximate
Wed 10:44:00 PM 60.0869 -46.3511 89° East  Level FlightAware Approximate
Wed 10:45:00 PM 60.0895 -46.0681 89° East  Level FlightAware Approximate
Wed 10:46:00 PM 60.0915 -45.7851 89° East  Level FlightAware Approximate
Wed 10:47:00 PM 60.0929 -45.5021 89° East  Level FlightAware Approximate
Wed 10:48:00 PM 60.0937 -45.2190 90° East  Level FlightAware Approximate
Wed 10:49:00 PM 60.0939 -44.9359 90° East  Level FlightAware Approximate
Wed 10:50:00 PM 60.0935 -44.6529 90° East  Level FlightAware Approximate
Wed 10:51:00 PM 60.0925 -44.3698 90° East  Level FlightAware Approximate
Wed 10:52:00 PM 60.0908 -44.0868 91° East  Level FlightAware Approximate
Wed 10:53:00 PM 60.0886 -43.8038 91° East  Level FlightAware Approximate
Wed 10:54:00 PM 60.0858 -43.5209 91° East  Level FlightAware Approximate
Wed 10:55:00 PM 60.0823 -43.2379 91° East  Level FlightAware Approximate
Wed 10:56:00 PM 60.0783 -42.9551 92° East  Level FlightAware Approximate
Wed 10:57:00 PM 60.0737 -42.6724 92° East  Level FlightAware Approximate
Wed 10:58:00 PM 60.0684 -42.3897 92° East  Level FlightAware Approximate
Wed 10:59:00 PM 60.0626 -42.1071 92° East  Level FlightAware Approximate
Wed 11:00:00 PM 60.0562 -41.8246 92° East  Level FlightAware Approximate
Wed 11:01:00 PM 60.0491 -41.5423 93° East  Level FlightAware Approximate
Wed 11:02:00 PM 60.0415 -41.2600 93° East  Level FlightAware Approximate
Wed 11:03:00 PM 60.0332 -40.9779 93° East  Level FlightAware Approximate
Wed 11:04:00 PM 60.0244 -40.6960 93° East  Level FlightAware Approximate
Wed 11:05:00 PM 60.0150 -40.4142 94° East  Level FlightAware Approximate
Wed 11:06:00 PM 60.0049 -40.1325 94° East  Level FlightAware Approximate
Wed 11:07:00 PM 59.9911 -39.8517 97° East  Level FlightAware Approximate
Wed 11:08:00 PM 59.9737 -39.5717 97° East  Level FlightAware Approximate
Wed 11:09:00 PM 59.9558 -39.2921 97° East  Level FlightAware Approximate
Wed 11:10:00 PM 59.9373 -39.0127 97° East  Level FlightAware Approximate
Wed 11:11:00 PM 59.9182 -38.7336 98° East  Level FlightAware Approximate
Wed 11:12:00 PM 59.8985 -38.4549 98° East  Level FlightAware Approximate
Wed 11:13:00 PM 59.8782 -38.1765 98° East  Level FlightAware Approximate
Wed 11:14:00 PM 59.8573 -37.8985 98° East  Level FlightAware Approximate
Wed 11:15:00 PM 59.8358 -37.6208 99° East  Level FlightAware Approximate
Wed 11:16:00 PM 59.8138 -37.3434 99° East  Level FlightAware Approximate
Wed 11:17:00 PM 59.7912 -37.0665 99° East  Level FlightAware Approximate
Wed 11:18:00 PM 59.7680 -36.7899 99° East  Level FlightAware Approximate
Wed 11:19:00 PM 59.7442 -36.5137 100° East  Level FlightAware Approximate
Wed 11:20:00 PM 59.7198 -36.2379 100° East  Level FlightAware Approximate
Wed 11:21:00 PM 59.6949 -35.9625 100° East  Level FlightAware Approximate
Wed 11:22:00 PM 59.6693 -35.6876 100° East  Level FlightAware Approximate
Wed 11:23:00 PM 59.6432 -35.4130 101° East  Level FlightAware Approximate
Wed 11:24:00 PM 59.6166 -35.1389 101° East  Level FlightAware Approximate
Wed 11:25:00 PM 59.5893 -34.8652 101° East  Level FlightAware Approximate
Wed 11:26:00 PM 59.5615 -34.5920 101° East  Level FlightAware Approximate
Wed 11:27:00 PM 59.5331 -34.3192 101° East  Level FlightAware Approximate
Wed 11:28:00 PM 59.5042 -34.0469 102° East  Level FlightAware Approximate
Wed 11:29:00 PM 59.4747 -33.7751 102° East  Level FlightAware Approximate
Wed 11:30:00 PM 59.4446 -33.5037 102° East  Level FlightAware Approximate
Wed 11:31:00 PM 59.4140 -33.2328 102° East  Level FlightAware Approximate
Wed 11:32:00 PM 59.3828 -32.9624 103° East  Level FlightAware Approximate
Wed 11:33:00 PM 59.3511 -32.6926 103° East  Level FlightAware Approximate
Wed 11:34:00 PM 59.3187 -32.4232 103° East  Level FlightAware Approximate
Wed 11:35:00 PM 59.2859 -32.1543 103° East  Level FlightAware Approximate
Wed 11:36:00 PM 59.2525 -31.8860 104° East  Level FlightAware Approximate
Wed 11:37:00 PM 59.2185 -31.6182 104° East  Level FlightAware Approximate
Wed 11:38:00 PM 59.1840 -31.3509 104° East  Level FlightAware Approximate
Wed 11:39:00 PM 59.1489 -31.0842 104° East  Level FlightAware Approximate
Wed 11:40:00 PM 59.1133 -30.8180 104° East  Level FlightAware Approximate
Wed 11:41:00 PM 59.0772 -30.5524 105° East  Level FlightAware Approximate
Wed 11:42:00 PM 59.0405 -30.2874 105° East  Level FlightAware Approximate
Wed 11:43:00 PM 59.0033 -30.0229 105° East  Level FlightAware Approximate
Wed 11:44:00 PM 58.9634 -29.7602 106° East  Level FlightAware Approximate
Wed 11:45:00 PM 58.9229 -29.4981 107° East  Level FlightAware Approximate
Wed 11:46:00 PM 58.8818 -29.2367 107° East  Level FlightAware Approximate
Wed 11:47:00 PM 58.8401 -28.9759 107° East  Level FlightAware Approximate
Wed 11:48:00 PM 58.7980 -28.7158 107° East  Level FlightAware Approximate
Wed 11:49:00 PM 58.7553 -28.4562 107° East  Level FlightAware Approximate
Wed 11:50:00 PM 58.7122 -28.1974 108° East  Level FlightAware Approximate
Wed 11:51:00 PM 58.6685 -27.9391 108° East  Level FlightAware Approximate
Wed 11:52:00 PM 58.6242 -27.6815 108° East  Level FlightAware Approximate
Wed 11:53:00 PM 58.5795 -27.4246 108° East  Level FlightAware Approximate
Wed 11:54:00 PM 58.5343 -27.1683 109° East  Level FlightAware Approximate
Wed 11:55:00 PM 58.4885 -26.9127 109° East  Level FlightAware Approximate
Wed 11:56:00 PM 58.4423 -26.6578 109° East  Level FlightAware Approximate
Wed 11:57:00 PM 58.3955 -26.4035 109° East  Level FlightAware Approximate
Wed 11:58:00 PM 58.3483 -26.1499 109° East  Level FlightAware Approximate
Wed 11:59:00 PM 58.3005 -25.8970 110° East  Level FlightAware Approximate
Thu 12:00:00 AM 58.2522 -25.6448 110° East  Level FlightAware Approximate
Thu 12:01:00 AM 58.2035 -25.3933 110° East  Level FlightAware Approximate
Thu 12:02:00 AM 58.1542 -25.1424 110° East  Level FlightAware Approximate
Thu 12:03:00 AM 58.1045 -24.8923 111° Southeast  Level FlightAware Approximate
Thu 12:04:00 AM 58.0542 -24.6428 111° Southeast  Level FlightAware Approximate
Thu 12:05:00 AM 58.0035 -24.3941 111° Southeast  Level FlightAware Approximate
Thu 12:06:00 AM 57.9523 -24.1461 111° Southeast  Level FlightAware Approximate
Thu 12:07:00 AM 57.9007 -23.8988 111° Southeast  Level FlightAware Approximate
Thu 12:08:00 AM 57.8485 -23.6521 112° Southeast  Level FlightAware Approximate
Thu 12:09:00 AM 57.7958 -23.4062 112° Southeast  Level FlightAware Approximate
Thu 12:10:00 AM 57.7427 -23.1611 112° Southeast  Level FlightAware Approximate
Thu 12:11:00 AM 57.6892 -22.9166 112° Southeast  Level FlightAware Approximate
Thu 12:12:00 AM 57.6351 -22.6729 112° Southeast  Level FlightAware Approximate
Thu 12:13:00 AM 57.5806 -22.4299 113° Southeast  Level FlightAware Approximate
Thu 12:14:00 AM 57.5256 -22.1876 113° Southeast  Level FlightAware Approximate
Thu 12:15:00 AM 57.4702 -21.9461 113° Southeast  Level FlightAware Approximate
Thu 12:16:00 AM 57.4142 -21.7053 113° Southeast  Level FlightAware Approximate
Thu 12:17:00 AM 57.3579 -21.4653 113° Southeast  Level FlightAware Approximate
Thu 12:18:00 AM 57.3011 -21.2259 114° Southeast  Level FlightAware Approximate
Thu 12:19:00 AM 57.2438 -20.9874 114° Southeast  Level FlightAware Approximate
Thu 12:20:00 AM 57.1861 -20.7495 114° Southeast  Level FlightAware Approximate
Thu 12:21:00 AM 57.1279 -20.5124 114° Southeast  Level FlightAware Approximate
Thu 12:22:00 AM 57.0693 -20.2761 114° Southeast  Level FlightAware Approximate
Thu 12:23:00 AM 57.0102 -20.0405 115° Southeast  Level FlightAware Approximate
Thu 12:24:00 AM 56.9775 -19.7896 101° East  Level FlightAware Approximate
Thu 12:25:00 AM 56.9499 -19.5357 101° East  Level FlightAware Approximate
Thu 12:26:00 AM 56.9218 -19.2822 101° East  Level FlightAware Approximate
Thu 12:27:00 AM 56.8932 -19.0291 102° East  Level FlightAware Approximate
Thu 12:28:00 AM 56.8641 -18.7764 102° East  Level FlightAware Approximate
Thu 12:29:00 AM 56.8344 -18.5240 102° East  Level FlightAware Approximate
Thu 12:30:00 AM 56.8042 -18.2721 102° East  Level FlightAware Approximate
Thu 12:31:00 AM 56.7736 -18.0206 102° East  Level FlightAware Approximate
Thu 12:32:00 AM 56.7424 -17.7695 103° East  Level FlightAware Approximate
Thu 12:33:00 AM 56.7107 -17.5188 103° East  Level FlightAware Approximate
Thu 12:34:00 AM 56.6786 -17.2686 103° East  Level FlightAware Approximate
Thu 12:35:00 AM 56.6459 -17.0187 103° East  Level FlightAware Approximate
Thu 12:36:00 AM 56.6130 -16.7692 103° East  Level FlightAware Approximate
Thu 12:37:00 AM 56.5796 -16.5201 104° East  Level FlightAware Approximate
Thu 12:38:00 AM 56.5457 -16.2715 104° East  Level FlightAware Approximate
Thu 12:39:00 AM 56.5114 -16.0233 104° East  Level FlightAware Approximate
Thu 12:40:00 AM 56.4765 -15.7756 104° East  Level FlightAware Approximate
Thu 12:41:00 AM 56.4411 -15.5283 104° East  Level FlightAware Approximate
Thu 12:42:00 AM 56.4053 -15.2815 105° East  Level FlightAware Approximate
Thu 12:43:00 AM 56.3689 -15.0352 105° East  Level FlightAware Approximate
Thu 12:44:00 AM 56.3321 -14.7893 105° East  Level FlightAware Approximate
Thu 12:45:00 AM 56.2948 -14.5439 105° East  Level FlightAware Approximate
Thu 12:46:00 AM 56.2570 -14.2990 105° East  Level FlightAware Approximate
Thu 12:47:00 AM 56.2187 -14.0546 106° East  Level FlightAware Approximate
Thu 12:48:00 AM 56.1799 -13.8106 106° East  Level FlightAware Approximate
Thu 12:49:00 AM 56.1407 -13.5672 106° East  Level FlightAware Approximate
Thu 12:50:00 AM 56.1009 -13.3243 106° East  Level FlightAware Approximate
Thu 12:51:00 AM 56.0607 -13.0818 106° East  Level FlightAware Approximate
Thu 12:52:00 AM 56.0201 -12.8399 107° East  Level FlightAware Approximate
Thu 12:52:22 AM 55.6030 -11.7550 107° East 525 604 33,000  Level FlightAware ADS-B
Thu 12:53:00 AM 55.9789 -12.5985 107° East  Level FlightAware Approximate
Thu 12:53:07 AM 55.5740 -11.5610 105° East 527 606 33,000  Level FlightAware ADS-B
Thu 12:53:47 AM 55.5480 -11.3940 105° East 528 608 33,000  Level FlightAware ADS-B
Thu 12:54:32 AM 55.5200 -11.2080 105° East 530 610 33,000  Level FlightAware ADS-B
Thu 12:55:12 AM 55.4950 -11.0450 105° East 530 610 33,000  Level FlightAware ADS-B
Thu 12:55:52 AM 55.4680 -10.8730 105° East 528 608 33,000  Level FlightAware ADS-B
Thu 12:56:37 AM 55.4390 -10.6920 106° East 527 606 33,000  Level FlightAware ADS-B
Thu 12:57:17 AM 55.4130 -10.5280 106° East 528 608 33,000  Level FlightAware ADS-B
Thu 12:58:02 AM 55.3820 -10.3400 106° East 532 612 33,000  Level FlightAware ADS-B
Thu 12:58:42 AM 55.3550 -10.1730 106° East 534 615 33,000  Level FlightAware ADS-B
Thu 12:59:22 AM 55.3260 -10.0030 107° East 531 611 33,000  Level FlightAware ADS-B
Thu 01:00:07 AM 55.2910 -9.8250 109° East 530 610 33,000  Level FlightAware ADS-B
Thu 01:00:47 AM 55.2580 -9.6640 110° East 531 611 33,000  Level FlightAware ADS-B
Thu 01:01:32 AM 55.2220 -9.4800 109° East 531 611 33,000  Level FlightAware ADS-B
Thu 01:02:07 AM 55.1930 -9.3400 110° East 530 610 33,000  Level FlightAware ADS-B
Thu 01:02:52 AM 55.1560 -9.1560 109° East 529 609 33,000 -1,385 Level FlightAware ADS-B
Thu 01:03:12 AM 55.1362 -8.9768 109° East 466 536 31,500 -2,368 Descending FlightAware UK
Thu 01:03:30 AM 55.1218 -8.9045 109° East 468 539 31,500 4,500 Level FlightAware UK
Thu 01:03:32 AM 55.1240 -8.9960 109° East 529 609 33,000 -333 Climbing FlightAware ADS-B
Thu 01:03:48 AM 55.1073 -8.8325 109° East 466 536 31,400 -2,647 Descending FlightAware UK
Thu 01:04:06 AM 55.0925 -8.7606 110° East 466 536 31,500 3,310 Climbing FlightAware UK
Thu 01:04:17 AM 55.0860 -8.8130 110° East 528 608 33,000  Climbing FlightAware ADS-B
Thu 01:04:36 AM 55.0683 -8.6409 110° East 468 539 31,500 -2,432 Descending FlightAware UK
Thu 01:04:54 AM 55.0534 -8.5685 110° East 468 539 31,500 3,462 Level FlightAware UK
Thu 01:05:02 AM 55.0490 -8.6350 110° East 527 606 33,000  Climbing FlightAware ADS-B
Thu 01:05:18 AM 55.0337 -8.4734 110° East 468 539 31,500 -2,647 Descending FlightAware UK
Thu 01:05:36 AM 55.0189 -8.4023 110° East 468 539 31,500 4,737 Level FlightAware UK
Thu 01:05:37 AM 55.0200 -8.4970 110° East 525 604 33,000  Climbing FlightAware ADS-B
Thu 01:05:54 AM 55.0041 -8.3312 110° East 468 539 31,500 -2,571 Descending FlightAware UK
Thu 01:06:12 AM 54.9895 -8.2604 110° East 466 536 31,500 2,727 Level FlightAware UK
Thu 01:06:27 AM 54.9770 -8.2950 110° East 524 603 33,000  Climbing FlightAware ADS-B
Thu 01:06:42 AM 54.9647 -8.1423 110° East 466 536 31,500 -2,727 Descending FlightAware UK
Thu 01:07:00 AM 54.9499 -8.0716 110° East 466 536 31,500 3,600 Level FlightAware UK
Thu 01:07:07 AM 54.9420 -8.1280 110° East 521 600 33,000  Climbing FlightAware ADS-B
Thu 01:07:24 AM 54.9298 -7.9776 110° East 464 534 31,500 -2,571 Descending FlightAware UK
Thu 01:07:42 AM 54.9147 -7.9071 110° East 464 534 31,500 3,913 Level FlightAware UK
Thu 01:07:47 AM 54.9090 -7.9790 110° East 525 604 33,000  Climbing FlightAware ADS-B
Thu 01:08:06 AM 54.8948 -7.8131 110° East 464 534 31,500 -2,432 Descending FlightAware UK
Thu 01:08:24 AM 54.8798 -7.7427 110° East 462 532 31,500 4,286 Level FlightAware UK
Thu 01:08:27 AM 54.8760 -7.8250 110° East 525 604 33,000 -333 Climbing FlightAware ADS-B
Thu 01:08:42 AM 54.8647 -7.6724 110° East 464 534 31,400 -2,909 Descending FlightAware UK
Thu 01:09:00 AM 54.8497 -7.6021 110° East 464 534 31,400 3,200 Level FlightAware UK
Thu 01:09:12 AM 54.8380 -7.6490 110° East 524 603 33,000 200 Climbing FlightAware ADS-B
Thu 01:09:30 AM 54.8244 -7.4853 110° East 464 534 31,500 -2,500 Descending FlightAware UK
Thu 01:09:48 AM 54.8089 -7.4145 111° Southeast 464 534 31,500 3,333 Level FlightAware UK
Thu 01:09:57 AM 54.7980 -7.4700 111° Southeast 525 604 33,000  Climbing FlightAware ADS-B
Thu 01:10:12 AM 54.7885 -7.3210 111° Southeast 464 534 31,500 -2,727 Descending FlightAware UK
Thu 01:10:30 AM 54.7733 -7.2507 111° Southeast 464 534 31,500 3,600 Level FlightAware UK
Thu 01:10:37 AM 54.7630 -7.3130 111° Southeast 526 605 33,000  Climbing FlightAware ADS-B
Thu 01:10:54 AM 54.7528 -7.1572 111° Southeast 464 534 31,500 -2,571 Descending FlightAware UK
Thu 01:11:12 AM 54.7372 -7.0872 111° Southeast 464 534 31,500 3,913 Level FlightAware UK
Thu 01:11:17 AM 54.7300 -7.1630 111° Southeast 526 605 33,000  Climbing FlightAware ADS-B
Thu 01:11:36 AM 54.7165 -6.9929 111° Southeast 466 536 31,500 -2,432 Descending FlightAware UK
Thu 01:11:54 AM 54.7012 -6.9229 111° Southeast 466 536 31,500 3,462 Level FlightAware UK
Thu 01:12:02 AM 54.6890 -6.9820 111° Southeast 527 606 33,000  Climbing FlightAware ADS-B
Thu 01:12:18 AM 54.6802 -6.8295 111° Southeast 466 536 31,500 -2,647 Descending FlightAware UK
Thu 01:12:36 AM 54.6644 -6.7596 111° Southeast 464 534 31,500 3,750 Level FlightAware UK
Thu 01:12:42 AM 54.6540 -6.8290 111° Southeast 527 606 33,000  Climbing FlightAware ADS-B
Thu 01:13:00 AM 54.6437 -6.6664 111° Southeast 466 536 31,500 -2,500 Descending FlightAware UK
Thu 01:13:18 AM 54.6279 -6.5967 111° Southeast 466 536 31,500 4,091 Level FlightAware UK
Thu 01:13:22 AM 54.6180 -6.6690 111° Southeast 527 606 33,000  Climbing FlightAware ADS-B
Thu 01:13:42 AM 54.6070 -6.5038 111° Southeast 466 536 31,500 -2,368 Descending FlightAware UK
Thu 01:14:00 AM 54.5907 -6.4342 112° Southeast 466 536 31,500 3,600 Level FlightAware UK
Thu 01:14:07 AM 54.5770 -6.4930 112° Southeast 527 606 33,000  Climbing FlightAware ADS-B
Thu 01:14:24 AM 54.5695 -6.3413 112° Southeast 466 536 31,500 -2,571 Descending FlightAware UK
Thu 01:14:42 AM 54.5535 -6.2717 112° Southeast 466 536 31,500 3,913 Level FlightAware UK
Thu 01:14:47 AM 54.5420 -6.3390 112° Southeast 528 608 33,000  Climbing FlightAware ADS-B
Thu 01:15:06 AM 54.5321 -6.1788 112° Southeast 466 536 31,500 -2,432 Descending FlightAware UK
Thu 01:15:24 AM 54.5162 -6.1094 112° Southeast 466 536 31,500 3,462 Level FlightAware UK
Thu 01:15:32 AM 54.5010 -6.1670 112° Southeast 528 608 33,000  Climbing FlightAware ADS-B
Thu 01:15:48 AM 54.4947 -6.0169 112° Southeast 466 536 31,500 -2,647 Descending FlightAware UK
Thu 01:16:06 AM 54.4786 -5.9476 112° Southeast 466 536 31,500 3,750 Level FlightAware UK
Thu 01:16:12 AM 54.4660 -6.0150 112° Southeast 527 606 33,000  Climbing FlightAware ADS-B
Thu 01:16:30 AM 54.4569 -5.8554 112° Southeast 466 536 31,500 -2,500 Descending FlightAware UK
Thu 01:16:48 AM 54.4407 -5.7861 112° Southeast 466 536 31,500 3,333 Level FlightAware UK
Thu 01:16:57 AM 54.4230 -5.8370 112° Southeast 528 608 33,000  Climbing FlightAware ADS-B
Thu 01:17:12 AM 54.4188 -5.6931 112° Southeast 466 536 31,500 -2,727 Descending FlightAware UK
Thu 01:17:30 AM 54.4025 -5.6239 112° Southeast 468 539 31,500 3,600 Level FlightAware UK
Thu 01:17:37 AM 54.3860 -5.6810 112° Southeast 528 608 33,000  Climbing FlightAware ADS-B
Thu 01:17:54 AM 54.3806 -5.5318 112° Southeast 470 541 31,500 -2,571 Descending FlightAware UK
Thu 01:18:12 AM 54.3643 -5.4629 112° Southeast 470 541 31,500 3,913 Level FlightAware UK
Thu 01:18:17 AM 54.3500 -5.5300 112° Southeast 527 606 33,000  Climbing FlightAware ADS-B
Thu 01:18:36 AM 54.3425 -5.3709 112° Southeast 470 541 31,500 -2,432 Descending FlightAware UK
Thu 01:18:54 AM 54.3260 -5.3022 112° Southeast 468 539 31,500 3,462 Level FlightAware UK
Thu 01:19:02 AM 54.3080 -5.3530 112° Southeast 528 608 33,000  Climbing FlightAware ADS-B
Thu 01:19:18 AM 54.3040 -5.2105 112° Southeast 468 539 31,500 -2,647 Descending FlightAware UK
Thu 01:19:36 AM 54.2875 -5.1418 112° Southeast 466 536 31,500 3,750 Level FlightAware UK
Thu 01:19:42 AM 54.2720 -5.2040 112° Southeast 527 606 33,000  Climbing FlightAware ADS-B
Thu 01:20:00 AM 54.2654 -5.0503 112° Southeast 468 539 31,500 -2,500 Descending FlightAware UK
Thu 01:20:18 AM 54.2487 -4.9818 113° Southeast 468 539 31,500 4,091 Level FlightAware UK
Thu 01:20:22 AM 54.2330 -5.0480 113° Southeast 527 606 33,000  Climbing FlightAware ADS-B
Thu 01:20:43 AM 54.2264 -4.8897 113° Southeast 470 541 31,500 -2,368 Descending FlightAware UK
Thu 01:21:00 AM 54.2098 -4.8222 113° Southeast 470 541 31,500 3,750 Level FlightAware UK
Thu 01:21:07 AM 54.1910 -4.8760 113° Southeast 526 605 33,000  Climbing FlightAware ADS-B
Thu 01:21:24 AM 54.1873 -4.7313 113° Southeast 470 541 31,500  Descending FlightAware UK
Thu 01:21:42 AM 54.1600 -4.7510 113° Southeast 526 605 33,000  Climbing FlightAware ADS-B
Thu 01:21:43 AM 54.1703 -4.6624 113° Southeast 470 541 31,500 -3,600 Descending FlightAware UK
Thu 01:22:07 AM 54.1479 -4.5715 113° Southeast 468 539 31,500  Level FlightAware UK
Thu 01:22:24 AM 54.1310 -4.5043 113° Southeast 466 536 31,500 3,600 Level FlightAware UK
Thu 01:22:32 AM 54.1090 -4.5440 113° Southeast 525 604 33,000  Climbing FlightAware ADS-B
Thu 01:22:55 AM 54.1025 -4.3902 113° Southeast 468 539 31,500  Descending FlightAware UK
Thu 01:23:12 AM 54.0710 -4.3930 113° Southeast 525 604 33,000  Climbing FlightAware ADS-B
Thu 01:23:31 AM 54.0683 -4.2543 113° Southeast 470 541 31,500 -2,432 Descending FlightAware UK
Thu 01:23:49 AM 54.0511 -4.1865 113° Southeast 472 543 31,500 4,286 Level FlightAware UK
Thu 01:23:52 AM 54.0320 -4.2400 113° Southeast 524 603 33,000  Climbing FlightAware ADS-B
Thu 01:24:07 AM 54.0338 -4.1189 113° Southeast 472 543 31,500 -2,727 Descending FlightAware UK
Thu 01:24:25 AM 54.0164 -4.0506 113° Southeast 472 543 31,500 3,000 Level FlightAware UK
Thu 01:24:37 AM 53.9910 -4.0770 113° Southeast 524 603 33,000  Climbing FlightAware ADS-B
Thu 01:24:55 AM 53.9877 -3.9380 113° Southeast 470 541 31,500 -2,500 Descending FlightAware UK
Thu 01:25:13 AM 53.9706 -3.8706 113° Southeast 470 541 31,500 4,091 Level FlightAware UK
Thu 01:25:17 AM 53.9520 -3.9250 113° Southeast 525 604 33,000  Climbing FlightAware ADS-B
Thu 01:25:37 AM 53.9503 -3.7782 113° Southeast 470 541 31,500 -2,368 Descending FlightAware UK
Thu 01:25:55 AM 53.9361 -3.7080 109° East 470 541 31,500 4,500 Level FlightAware UK
Thu 01:25:57 AM 53.9200 -3.7740 109° East 529 609 33,000  Climbing FlightAware ADS-B
Thu 01:26:13 AM 53.9223 -3.6376 109° East 470 541 31,500 -2,647 Descending FlightAware UK
Thu 01:26:31 AM 53.9090 -3.5668 108° East 472 543 31,500 3,103 Level FlightAware UK
Thu 01:26:42 AM 53.8860 -3.5920 108° East 529 609 33,000 -200 Climbing FlightAware ADS-B
Thu 01:27:01 AM 53.8870 -3.4479 108° East 468 539 31,400 -2,432 Descending FlightAware UK
Thu 01:27:19 AM 53.8741 -3.3779 107° East 466 536 31,500 4,571 Climbing FlightAware UK
Thu 01:27:22 AM 53.8560 -3.4330 107° East 529 609 33,000  Climbing FlightAware ADS-B
Thu 01:27:37 AM 53.8611 -3.3072 107° East 466 536 31,500 -2,909 Descending FlightAware UK
Thu 01:27:55 AM 53.8481 -3.2357 107° East 466 536 31,400 3,000 Descending FlightAware UK
Thu 01:28:07 AM 53.8240 -3.2570 107° East 528 608 33,000  Climbing FlightAware ADS-B
Thu 01:28:25 AM 53.8262 -3.1182 107° East 464 534 31,400 -2,667 Descending FlightAware UK
Thu 01:28:43 AM 53.8132 -3.0477 107° East 464 534 31,400 4,364 Level FlightAware UK
Thu 01:28:47 AM 53.7960 -3.1010 107° East 527 606 33,000  Climbing FlightAware ADS-B
Thu 01:29:07 AM 53.7957 -2.9531 107° East 462 532 31,400 -2,526 Descending FlightAware UK
Thu 01:29:25 AM 53.7827 -2.8829 107° East 462 532 31,400 3,840 Level FlightAware UK
Thu 01:29:32 AM 53.7630 -2.9230 107° East 526 605 33,000 250 Climbing FlightAware ADS-B
Thu 01:29:49 AM 53.7653 -2.7893 107° East 462 532 31,500 -2,743 Descending FlightAware UK
Thu 01:30:07 AM 53.7521 -2.7183 107° East 460 529 31,400 3,913 Descending FlightAware UK
Thu 01:30:12 AM 53.7330 -2.7640 107° East 526 605 33,000 250 Climbing FlightAware ADS-B
Thu 01:30:31 AM 53.7344 -2.6247 107° East 462 532 31,500 -2,432 Descending FlightAware UK
Thu 01:30:49 AM 53.7212 -2.5544 108° East 462 532 31,500 4,286 Level FlightAware UK
Thu 01:30:52 AM 53.7050 -2.6110 108° East 528 608 33,000  Climbing FlightAware ADS-B
Thu 01:31:07 AM 53.7080 -2.4842 108° East 462 532 31,500 -2,727 Descending FlightAware UK
Thu 01:31:25 AM 53.6947 -2.4140 108° East 462 532 31,500 3,333 Level FlightAware UK
Thu 01:31:34 AM 53.6716 -2.4306 108° East 529 609 33,000  Climbing FlightAware ADS-B
Thu 01:31:50 AM 53.6767 -2.3194 108° East 462 532 31,500  Descending FlightAware UK
Thu 01:32:06 AM 53.6482 -2.3075 108° East 530 610 33,000  Climbing FlightAware ADS-B
Thu 01:32:26 AM 53.6493 -2.1790 108° East 462 532 31,500  Descending FlightAware UK
Thu 01:32:36 AM 53.6252 -2.1874 108° East 530 610 33,000  Climbing FlightAware ADS-B
Thu 01:32:56 AM 53.6264 -2.0621 108° East 462 532 31,500  Descending FlightAware UK
Thu 01:33:07 AM 53.6021 -2.0672 108° East 530 610 33,000  Climbing FlightAware ADS-B
Thu 01:33:26 AM 53.6033 -1.9454 108° East 464 534 31,500  Descending FlightAware UK
Thu 01:33:40 AM 53.5774 -1.9400 108° East 530 610 33,000  Climbing FlightAware ADS-B
Thu 01:33:56 AM 53.5803 -1.8285 108° East 466 536 31,500  Descending FlightAware UK
Thu 01:34:10 AM 53.5547 -1.8223 108° East 531 611 33,000  Climbing FlightAware ADS-B
Thu 01:34:26 AM 53.5570 -1.7108 108° East 466 536 31,500  Descending FlightAware UK
Thu 01:34:43 AM 53.5295 -1.6929 108° East 531 611 33,000  Climbing FlightAware ADS-B
Thu 01:35:02 AM 53.5291 -1.5707 108° East 464 534 31,500 -2,093 Descending FlightAware UK
Thu 01:35:26 AM 53.5101 -1.4766 109° East 464 534 31,500 2,571 Level FlightAware UK
Thu 01:35:37 AM 53.4880 -1.4822 109° East 531 611 33,000  Climbing FlightAware ADS-B
Thu 01:35:56 AM 53.4864 -1.3603 109° East 466 536 31,500  Descending FlightAware UK
Thu 01:36:12 AM 53.4605 -1.3444 109° East 531 611 33,000  Climbing FlightAware ADS-B
Thu 01:36:32 AM 53.4580 -1.2207 109° East 466 536 31,500  Descending FlightAware UK
Thu 01:36:45 AM 53.4353 -1.2167 109° East 530 610 33,000  Climbing FlightAware ADS-B
Thu 01:37:02 AM 53.4342 -1.1044 109° East 466 536 31,500  Descending FlightAware UK
Thu 01:37:16 AM 53.4112 -1.0969 109° East 531 611 33,000  Climbing FlightAware ADS-B
Thu 01:37:32 AM 53.4101 -0.9875 109° East 466 536 31,500 -2,647 Descending FlightAware UK
Thu 01:37:50 AM 53.3957 -0.9180 109° East 468 539 31,500 4,500 Level FlightAware UK
Thu 01:37:52 AM 53.3860 -0.9720 109° East 530 610 33,000 4,737 Climbing FlightAware ADS-B
Thu 01:38:09 AM 53.3698 -0.8908 108° East 531 611 33,000 -2,647 Level FlightAware ADS-B
Thu 01:38:26 AM 53.3668 -0.7789 108° East 468 539 31,500  Descending FlightAware UK
Thu 01:38:40 AM 53.3459 -0.7721 108° East 531 611 33,000 2,571 Climbing FlightAware ADS-B
Thu 01:39:01 AM 53.3297 -0.6885 108° East 535 616 33,000 -2,250 Level FlightAware ADS-B
Thu 01:39:20 AM 53.3286 -0.5667 108° East 468 539 31,500  Descending FlightAware UK
Thu 01:39:32 AM 53.3127 -0.5618 108° East 536 617 33,000  Climbing FlightAware ADS-B
Thu 01:39:50 AM 53.3118 -0.4450 108° East 468 539 31,500  Descending FlightAware UK
Thu 01:40:03 AM 53.2963 -0.4379 108° East 537 618 33,000  Climbing FlightAware ADS-B
Thu 01:40:20 AM 53.2951 -0.3245 108° East 468 539 31,500  Descending FlightAware UK
Thu 01:40:33 AM 53.2800 -0.3163 108° East 536 617 33,000  Climbing FlightAware ADS-B
Thu 01:40:51 AM 53.2780 -0.2031 108° East 468 539 31,500  Descending FlightAware UK
Thu 01:41:03 AM 53.2635 -0.1947 108° East 536 617 33,000  Climbing FlightAware ADS-B
Thu 01:41:27 AM 53.2573 -0.0588 108° East 468 539 31,500  Descending FlightAware UK
Thu 01:41:34 AM 53.2468 -0.0719 108° East 537 618 33,000  Climbing FlightAware ADS-B
Thu 01:41:51 AM 53.2432 0.0381 108° East 468 539 31,500  Descending FlightAware UK
Thu 01:42:04 AM 53.2299 0.0498 108° East 536 617 33,000  Climbing FlightAware ADS-B
Thu 01:42:21 AM 53.2259 0.1584 108° East 468 539 31,500  Descending FlightAware UK
Thu 01:42:36 AM 53.2120 0.1784 108° East 537 618 33,000  Climbing FlightAware ADS-B
Thu 01:42:51 AM 53.2081 0.2794 108° East 468 539 31,500  Descending FlightAware UK
Thu 01:43:08 AM 53.1945 0.3042 108° East 537 618 33,000 1,875 Climbing FlightAware ADS-B
Thu 01:43:39 AM 53.1767 0.4301 103° East 537 618 33,000  Level FlightAware ADS-B
Thu 01:44:09 AM 53.1592 0.5526 103° East 537 618 33,000 -1,875 Level FlightAware ADS-B
Thu 01:44:27 AM 53.1505 0.6648 103° East 468 539 31,500  Descending FlightAware UK
Thu 01:44:40 AM 53.1412 0.6764 103° East 538 619 33,000  Climbing FlightAware ADS-B
Thu 01:45:03 AM 53.1284 0.8091 103° East 468 539 31,500  Descending FlightAware UK
Thu 01:45:14 AM 53.1213 0.8128 103° East 539 620 33,000 2,093 Climbing FlightAware ADS-B
Thu 01:45:46 AM 53.1024 0.9406 104° East 539 620 33,000 -1,837 Level FlightAware ADS-B
Thu 01:46:03 AM 53.0907 1.0500 104° East 468 539 31,500  Descending FlightAware UK
Thu 01:46:17 AM 53.0839 1.0639 104° East 538 619 33,000  Climbing FlightAware ADS-B
Thu 01:46:39 AM 53.0679 1.1939 104° East 470 541 31,500  Descending FlightAware UK
Thu 01:46:47 AM 53.0655 1.1857 104° East 538 619 33,000 2,903 Climbing FlightAware ADS-B
Thu 01:47:10 AM 53.0509 1.2763 105° East 537 618 33,000  Level FlightAware ADS-B
Thu 01:47:25 AM 53.0394 1.3345 108° East 534 615 33,000  Level FlightAware ADS-B
Thu 01:47:44 AM 53.0225 1.4060 111° Southeast 530 610 33,000 -2,000 Level FlightAware ADS-B
Thu 01:48:10 AM 52.9922 1.5401 111° Southeast 470 541 31,500  Descending FlightAware UK
Thu 01:48:16 AM 52.9905 1.5277 111° Southeast 530 610 33,000  Climbing FlightAware ADS-B
Thu 01:48:40 AM 52.9619 1.6523 111° Southeast 470 541 31,500  Descending FlightAware UK
Thu 01:48:49 AM 52.9594 1.6476 111° Southeast 531 611 33,000  Climbing FlightAware ADS-B
Thu 01:49:04 AM 52.9374 1.7416 111° Southeast 470 541 31,500  Descending FlightAware UK
Thu 01:49:19 AM 52.9297 1.7608 111° Southeast 530 610 33,000  Climbing FlightAware ADS-B
Thu 01:49:40 AM 52.9010 1.8756 111° Southeast 472 543 31,500  Descending FlightAware UK
Thu 01:49:53 AM 52.8967 1.8851 111° Southeast 531 611 33,000  Climbing FlightAware ADS-B
Thu 01:50:10 AM 52.8707 1.9867 111° Southeast 472 543 31,500  Descending FlightAware UK
Thu 01:50:27 AM 52.8627 2.0128 111° Southeast 530 610 33,000  Climbing FlightAware ADS-B
Thu 01:50:46 AM 52.8335 2.1202 111° Southeast 472 543 31,500  Descending FlightAware UK
Thu 01:51:13 AM 52.8197 2.1860 111° Southeast 536 617 33,000 2,500 Climbing FlightAware ADS-B
Thu 01:51:22 AM 52.8153 2.2218 101° East 539 620 33,000 -3,333 Level FlightAware ADS-B
Thu 01:51:40 AM 52.7950 2.3305 101° East 470 541 31,500 -2,500 Descending FlightAware UK
Thu 01:51:58 AM 52.7862 2.4029 101° East 472 543 31,500  Level FlightAware UK
Thu 01:52:16 AM 52.7770 2.4760 102° East 472 543 31,500  Level FlightAware UK
Thu 01:52:34 AM 52.7673 2.5481 103° East 472 543 31,500  Level FlightAware UK
Thu 01:52:52 AM 52.7565 2.6204 104° East 472 543 31,500  Level FlightAware UK
Thu 01:53:10 AM 52.7422 2.6904 109° East 470 541 31,500  Level FlightAware UK
Thu 01:53:28 AM 52.7280 2.7592 109° East 470 541 31,500 1,915 Level FlightAware UK
Thu 01:53:57 AM 52.7190 2.8200 109° East 527 606 33,000  Climbing FlightAware ADS-B
Thu 01:54:17 AM 52.6806 2.9371 109° East 468 539 31,500 -2,368 Descending FlightAware UK
Thu 01:54:35 AM 52.6627 3.0032 114° Southeast 468 539 31,500 3,600 Level FlightAware UK
Thu 01:54:42 AM 52.6760 2.9860 114° Southeast 525 604 33,000  Climbing FlightAware ADS-B
Thu 01:55:11 AM 52.6266 3.1346 114° Southeast 466 536 31,500  Descending FlightAware UK
Thu 01:55:22 AM 52.6370 3.1320 114° Southeast 523 602 33,000  Climbing FlightAware ADS-B
Thu 01:55:59 AM 52.5783 3.3092 114° Southeast 466 536 31,500  Descending FlightAware UK
Thu 01:56:07 AM 52.5920 3.3000 114° Southeast 522 601 33,000  Climbing FlightAware ADS-B
Thu 01:56:41 AM 52.5359 3.4622 114° Southeast 464 534 31,500  Descending FlightAware UK
Thu 01:56:47 AM 52.5530 3.4430 114° Southeast 521 600 33,000  Climbing FlightAware ADS-B
Thu 01:57:05 AM 52.5116 3.5489 114° Southeast 464 534 31,500 -2,500 Descending FlightAware UK
Thu 01:57:23 AM 52.4933 3.6137 115° Southeast 464 534 31,500 3,333 Level FlightAware UK
Thu 01:57:32 AM 52.5090 3.6050 115° Southeast 521 600 33,000  Climbing FlightAware ADS-B
Thu 01:57:59 AM 52.4565 3.7432 115° Southeast 464 534 31,500  Descending FlightAware UK
Thu 01:58:12 AM 52.4700 3.7470 115° Southeast 522 601 33,000  Climbing FlightAware ADS-B
Thu 01:58:35 AM 52.4197 3.8726 115° Southeast 466 536 31,500  Descending FlightAware UK
Thu 01:58:52 AM 52.4310 3.8870 115° Southeast 523 602 33,000  Climbing FlightAware ADS-B
Thu 01:59:17 AM 52.3767 4.0236 115° Southeast 466 536 31,500  Descending FlightAware UK
Thu 01:59:37 AM 52.3840 4.0570 115° Southeast 523 602 33,000  Climbing FlightAware ADS-B
Thu 01:59:59 AM 52.3331 4.1742 115° Southeast 466 536 31,500  Descending FlightAware UK
Thu 02:00:17 AM 52.3430 4.2010 115° Southeast 523 602 33,000  Climbing FlightAware ADS-B
Thu 02:00:41 AM 52.2895 4.3248 115° Southeast 466 536 31,500  Descending FlightAware UK
Thu 02:01:02 AM 52.3000 4.3550 115° Southeast 523 602 33,000  Climbing FlightAware ADS-B
Thu 02:01:23 AM 52.2461 4.4754 115° Southeast 468 539 31,500  Descending FlightAware UK
Thu 02:01:42 AM 52.2570 4.5030 115° Southeast 523 602 33,000  Climbing FlightAware ADS-B
Thu 02:02:11 AM 52.1956 4.6478 115° Southeast 468 539 31,500  Descending FlightAware UK
Thu 02:02:22 AM 52.2180 4.6420 115° Southeast 524 603 33,000 1,607 Climbing FlightAware ADS-B
Thu 02:03:07 AM 52.1710 4.8020 116° Southeast 524 603 33,000 -1,233 Level FlightAware ADS-B
Thu 02:03:35 AM 52.1070 4.9477 116° Southeast 470 541 31,500  Descending FlightAware UK
Thu 02:03:47 AM 52.1310 4.9390 116° Southeast 523 602 33,000  Climbing FlightAware ADS-B
Thu 02:04:05 AM 52.0708 5.0511 116° Southeast 470 541 31,500  Descending FlightAware UK
Thu 02:04:22 AM 52.0920 5.0710 116° Southeast 523 602 33,000 1,343 Climbing FlightAware ADS-B
Thu 02:05:12 AM 52.0410 5.2430 116° Southeast 523 602 33,000 -1,343 Level FlightAware ADS-B
Thu 02:05:29 AM 51.9808 5.3483 116° Southeast 470 541 31,500  Descending FlightAware UK
Thu 02:05:52 AM 51.9990 5.3850 116° Southeast 521 600 33,000 1,324 Climbing FlightAware ADS-B
Thu 02:06:37 AM 51.9510 5.5460 116° Southeast 519 597 33,000  Level FlightAware ADS-B
Thu 02:07:17 AM 51.9100 5.6810 116° Southeast 519 597 33,000  Level FlightAware ADS-B
Thu 02:07:52 AM 51.8730 5.8040 116° Southeast 518 596 33,000  Level FlightAware ADS-B
Thu 02:08:42 AM 51.8200 5.9760 116° Southeast 517 595 33,000  Level FlightAware ADS-B
Thu 02:09:17 AM 51.7850 6.0890 117° Southeast 515 593 33,000  Level FlightAware ADS-B
Thu 02:10:07 AM 51.7180 6.2570 123° Southeast 510 587 33,000  Level FlightAware ADS-B
Thu 02:10:47 AM 51.6630 6.3660 129° Southeast 508 585 33,000  Level FlightAware ADS-B
Thu 02:11:27 AM 51.6010 6.4880 129° Southeast 507 583 33,000  Level FlightAware ADS-B
Thu 02:12:07 AM 51.5390 6.6080 130° Southeast 505 581 33,000  Level FlightAware ADS-B
Thu 02:12:52 AM 51.4720 6.7380 130° Southeast 504 580 33,000  Level FlightAware ADS-B
Thu 02:13:32 AM 51.4120 6.8560 129° Southeast 504 580 33,000  Level FlightAware ADS-B
Thu 02:14:17 AM 51.3490 6.9760 130° Southeast 504 580 33,000  Level FlightAware ADS-B
Thu 02:14:57 AM 51.2900 7.0890 130° Southeast 502 578 33,000  Level FlightAware ADS-B
Thu 02:15:37 AM 51.2360 7.1920 130° Southeast 503 579 33,000  Level FlightAware ADS-B
Thu 02:16:22 AM 51.1630 7.3300 130° Southeast 502 578 33,000  Level FlightAware ADS-B
Thu 02:17:02 AM 51.1050 7.4390 130° Southeast 501 577 33,000  Level FlightAware ADS-B
Thu 02:17:47 AM 51.0340 7.5710 131° Southeast 501 577 33,000  Level FlightAware ADS-B
Thu 02:18:27 AM 50.9730 7.6840 131° Southeast 501 577 33,000  Level FlightAware ADS-B
Thu 02:19:12 AM 50.9050 7.8090 131° Southeast 495 570 33,000  Level FlightAware ADS-B
Thu 02:19:57 AM 50.8400 7.9280 131° Southeast 494 568 33,000  Level FlightAware ADS-B
Thu 02:20:37 AM 50.7780 8.0410 131° Southeast 493 567 33,000  Level FlightAware ADS-B
Thu 02:21:17 AM 50.7180 8.1510 131° Southeast 493 567 33,000  Level FlightAware ADS-B
Thu 02:22:02 AM 50.6500 8.2730 131° Southeast 493 567 33,000  Level FlightAware ADS-B
Thu 02:22:42 AM 50.5910 8.3780 131° Southeast 493 567 33,000  Level FlightAware ADS-B
Thu 02:23:22 AM 50.5320 8.4840 131° Southeast 493 567 33,000  Level FlightAware ADS-B
Thu 02:24:07 AM 50.4480 8.5840 143° Southeast 488 562 33,000  Level FlightAware ADS-B
Thu 02:24:42 AM 50.3860 8.6470 147° Southeast 482 555 33,000  Level FlightAware ADS-B
Thu 02:25:32 AM 50.2880 8.7440 148° Southeast 491 565 33,000  Level FlightAware ADS-B
Thu 02:26:12 AM 50.2040 8.8260 148° Southeast 492 566 33,000  Level FlightAware ADS-B
Thu 02:26:52 AM 50.1270 8.9000 148° Southeast 492 566 33,000  Level FlightAware ADS-B
Thu 02:27:32 AM 50.0490 8.9750 148° Southeast 493 567 33,000  Level FlightAware ADS-B
Thu 02:28:17 AM 49.9620 9.0580 148° Southeast 494 568 33,000  Level FlightAware ADS-B
Thu 02:28:57 AM 49.8850 9.1320 148° Southeast 496 571 33,000  Level FlightAware ADS-B
Thu 02:29:42 AM 49.7980 9.2150 148° Southeast 495 570 33,000  Level FlightAware ADS-B
Thu 02:30:22 AM 49.7160 9.2920 149° Southeast 495 570 33,000  Level FlightAware ADS-B
Thu 02:31:07 AM 49.6400 9.3770 144° Southeast 498 573 33,000  Level FlightAware ADS-B
Thu 02:31:42 AM 49.5780 9.4770 134° Southeast 501 577 33,000 -150 Level FlightAware ADS-B
Thu 02:32:27 AM 49.5140 9.5860 132° Southeast 33,000 -212 Level FlightAware ADS-B
Thu 02:33:07 AM 49.4500 9.6950 132° Southeast 502 578 32,700 -847 Descending FlightAware ADS-B
Thu 02:33:52 AM 49.3860 9.8060 132° Southeast 483 556 31,800 -1,694 Descending FlightAware ADS-B
Thu 02:34:32 AM 49.3230 9.9120 132° Southeast 472 543 30,300 -2,753 Descending FlightAware ADS-B
Thu 02:35:17 AM 49.2550 10.0250 133° Southeast 479 551 27,900 -3,150 Descending FlightAware ADS-B
Thu 02:35:52 AM 49.2020 10.1140 132° Southeast 484 557 26,100 -1,450 Descending FlightAware ADS-B
Thu 02:37:17 AM 49.0890 10.2950 134° Southeast 478 550 25,000 -489 Descending FlightAware ADS-B
Thu 02:38:07 AM 49.0020 10.4300 134° Southeast 491 565 25,000  Level FlightAware ADS-B
Thu 02:38:42 AM 48.9480 10.5140 134° Southeast 492 566 25,000 -375 Level FlightAware ADS-B
Thu 02:39:27 AM 48.8830 10.6170 134° Southeast 481 554 24,500 -1,575 Descending FlightAware ADS-B
Thu 02:40:02 AM 48.8220 10.7110 135° Southeast 470 541 22,900 -2,340 Descending FlightAware ADS-B
Thu 02:41:07 AM 48.7290 10.8530 135° Southeast 417 480 20,600 -2,220 Descending FlightAware ADS-B
Thu 02:41:42 AM 48.6860 10.9160 136° Southeast 383 441 19,200 -3,106 Descending FlightAware ADS-B
Thu 02:42:32 AM 48.6190 11.0070 138° Southeast 370 426 16,200 -3,474 Descending FlightAware ADS-B
Thu 02:43:17 AM 48.5590 11.0860 139° Southeast 357 411 13,700 -2,824 Descending FlightAware ADS-B
Thu 02:43:57 AM 48.5140 11.1460 139° Southeast 347 399 12,200 -1,725 Descending FlightAware ADS-B
Thu 02:44:37 AM 48.4680 11.2080 138° Southeast 340 391 11,400 -960 Descending FlightAware ADS-B
Thu 02:45:12 AM 48.4300 11.2720 132° Southeast 330 380 11,000 -978 Descending FlightAware ADS-B
Thu 02:46:52 AM 48.4370 11.4860 127° Southeast 286 329 9,200 -686 Descending FlightAware ADS-B
Thu 02:47:00 AM 48.3740 11.6512 127° Southeast  Level Estimated
Thu 02:48:07 AM 48.4470 11.6400 84° East 293 337 9,000  Level FlightAware ADS-B
Thu 02:49:17 AM 48.4570 11.7790 84° East 288 331 8,100 -771 Descending FlightAware ADS-B
Thu 02:51:00 AM 48.3500 11.7833 127° Southeast  Level FlightAware Approximate
Thu 02:52:00 AM 48.3538 11.7861 127° Southeast  Level Estimated
Thu 02:53:00 AM 48.3500 11.7833 127° Southeast  Level FlightAware Approximate
Thu 02:54:00 AM 48.3538 11.7861 127° Southeast  Level Estimated
Thu 02:55:00 AM 48.3500 11.7833 127° Southeast  Level FlightAware Approximate
Thu 02:56:00 AM 48.3538 11.7861 127° Southeast  Level Estimated

Login

Don't have an account? Register now (free) for customized features, flight alerts, and more!